createdAt,value
2024-01-28T00:03:00.608Z,2.94
2024-01-28T00:08:05.755Z,2.55
2024-01-28T00:13:09.504Z,2.27
2024-01-28T00:18:14.673Z,2.63
2024-01-28T00:23:18.722Z,1.16
2024-01-28T00:28:22.398Z,2.75
2024-01-28T00:33:27.734Z,2.58
2024-01-28T00:38:32.866Z,2.71
2024-01-28T00:43:36.859Z,1.63
2024-01-28T00:48:42.317Z,2.68
2024-01-28T00:53:46.357Z,2.61
2024-01-28T00:58:50.137Z,2.38
2024-01-28T01:03:55.341Z,0.58
2024-01-28T01:08:59.545Z,1.76
2024-01-28T01:14:05.188Z,1.93
2024-01-28T01:19:10.308Z,2.45
2024-01-28T01:24:14.156Z,2.37
2024-01-28T01:29:17.861Z,2.32
2024-01-28T01:34:23.068Z,0.90
2024-01-28T01:39:27.078Z,2.26
2024-01-28T01:44:31.061Z,1.83
2024-01-28T01:49:36.866Z,1.44
2024-01-28T01:54:40.944Z,1.12
2024-01-28T01:59:45.776Z,2.17
2024-01-28T02:04:52.081Z,0.83
2024-01-28T02:09:55.844Z,2.10
2024-01-28T02:15:06.149Z,0.28
2024-01-28T02:20:13.064Z,2.09
2024-01-28T02:25:18.318Z,2.04
2024-01-28T02:30:22.116Z,1.77
2024-01-28T02:35:26.919Z,0.85
2024-01-28T02:40:32.998Z,0.28
2024-01-28T02:45:37.067Z,0.29
2024-01-28T02:50:40.992Z,1.88
2024-01-28T02:55:46.256Z,1.57
2024-01-28T03:00:50.220Z,1.81
2024-01-28T03:05:54.078Z,1.80
2024-01-28T03:11:00.063Z,1.80
2024-01-28T03:16:04.905Z,1.46
2024-01-28T03:21:08.668Z,0.89
2024-01-28T03:26:14.228Z,0.21
2024-01-28T03:31:19.495Z,1.76
2024-01-28T03:36:23.507Z,1.24
2024-01-28T03:41:28.900Z,1.29
2024-01-28T03:46:32.609Z,1.61
2024-01-28T03:52:26.080Z,1.76
2024-01-28T03:57:31.564Z,1.62
2024-01-28T04:02:35.291Z,1.47
2024-01-28T04:07:39.389Z,1.58
2024-01-28T04:12:44.690Z,1.42
2024-01-28T04:17:48.702Z,1.56
2024-01-28T04:22:52.753Z,1.32
2024-01-28T04:27:58.070Z,0.35
2024-01-28T04:33:02.058Z,0.09
2024-01-28T04:38:06.211Z,1.09
2024-01-28T04:43:11.971Z,1.03
2024-01-28T04:48:17.154Z,1.09
2024-01-28T04:53:21.013Z,1.34
2024-01-28T04:58:26.169Z,1.40
2024-01-28T05:03:30.034Z,1.39
2024-01-28T05:08:33.954Z,1.13
2024-01-28T05:13:39.023Z,1.42
2024-01-28T05:18:42.876Z,1.40
2024-01-28T05:23:46.996Z,1.39
2024-01-28T05:28:52.266Z,1.09
2024-01-28T05:33:56.277Z,1.34
2024-01-28T05:39:00.328Z,0.87
2024-01-28T05:44:06.047Z,1.30
2024-01-28T05:49:12.660Z,-1.60
2024-01-28T05:54:17.018Z,1.11
2024-01-28T05:59:22.290Z,1.29
2024-01-28T06:04:26.170Z,0.45
2024-01-28T06:09:29.938Z,0.87
2024-01-28T06:14:35.271Z,1.27
2024-01-28T06:19:39.019Z,1.01
2024-01-28T06:24:43.963Z,1.13
2024-01-28T06:29:49.310Z,0.22
2024-01-28T06:34:53.930Z,1.26
2024-01-28T06:39:58.013Z,-0.74
2024-01-28T06:45:09.231Z,0.28
2024-01-28T06:50:13.276Z,0.64
2024-01-28T06:55:17.339Z,1.27
2024-01-28T07:00:23.176Z,0.57
2024-01-28T07:05:27.527Z,1.06
2024-01-28T07:10:31.482Z,-0.63
2024-01-28T07:15:37.225Z,0.95
2024-01-28T07:20:41.358Z,0.95
2024-01-28T07:25:45.188Z,1.33
2024-01-28T07:30:50.515Z,0.85
2024-01-28T07:35:54.850Z,0.78
2024-01-28T07:41:03.700Z,-0.84
2024-01-28T07:46:10.684Z,1.40
2024-01-28T07:51:14.700Z,0.70
2024-01-28T07:56:19.038Z,1.44
2024-01-28T08:01:24.526Z,1.07
2024-01-28T08:06:29.159Z,1.32
2024-01-28T08:11:33.125Z,1.38
2024-01-28T08:16:38.577Z,1.16
2024-01-28T08:21:44.458Z,1.44
2024-01-28T08:26:48.824Z,1.62
2024-01-28T08:31:54.282Z,0.25
2024-01-28T08:36:58.234Z,1.82
2024-01-28T08:42:02.168Z,1.38
2024-01-28T08:47:08.119Z,0.87
2024-01-28T08:52:12.881Z,0.04
2024-01-28T08:57:16.866Z,2.13
2024-01-28T09:02:23.395Z,1.95
2024-01-28T09:07:53.078Z,1.47
2024-01-28T09:12:57.413Z,1.66
2024-01-28T09:18:03.746Z,1.53
2024-01-28T09:23:07.623Z,1.14
2024-01-28T09:28:11.735Z,1.92
2024-01-28T09:33:17.222Z,2.46
2024-01-28T09:38:21.527Z,2.91
2024-01-28T09:43:30.806Z,3.05
2024-01-28T09:48:37.364Z,3.06
2024-01-28T09:53:44.061Z,3.35
2024-01-28T09:58:48.619Z,2.78
2024-01-28T10:03:54.428Z,3.21
2024-01-28T10:08:58.625Z,2.34
2024-01-28T10:14:02.680Z,3.95
2024-01-28T10:19:08.404Z,4.18
2024-01-28T10:24:13.533Z,3.94
2024-01-28T10:29:18.977Z,4.59
2024-01-28T10:34:24.638Z,4.50
2024-01-28T10:39:33.990Z,4.89
2024-01-28T10:44:46.185Z,5.25
2024-01-28T10:55:31.556Z,5.64
2024-01-28T11:00:37.064Z,5.70
2024-01-28T11:05:42.668Z,6.35
2024-01-28T11:10:46.435Z,6.02
2024-01-28T11:15:50.418Z,6.08
2024-01-28T11:20:55.952Z,4.98
2024-01-28T11:26:01.556Z,6.04
2024-01-28T11:31:05.931Z,7.46
2024-01-28T11:36:12.064Z,7.59
2024-01-28T11:41:19.547Z,7.77
2024-01-28T11:46:24.186Z,7.61
2024-01-28T11:51:32.851Z,7.91
2024-01-28T11:56:40.047Z,8.39
2024-01-28T12:01:45.670Z,8.45
2024-01-28T12:06:51.245Z,8.49
2024-01-28T12:11:55.411Z,8.91
2024-01-28T12:17:00.330Z,9.07
2024-01-28T12:22:05.934Z,9.26
2024-01-28T12:27:10.451Z,9.41
2024-01-28T12:32:14.631Z,9.06
2024-01-28T12:37:23.103Z,7.38
2024-01-28T12:42:28.636Z,9.95
2024-01-28T12:47:32.598Z,9.73
2024-01-28T12:52:38.473Z,10.32
2024-01-28T12:57:43.830Z,10.46
2024-01-28T13:02:48.014Z,10.64
2024-01-28T13:07:53.850Z,9.98
2024-01-28T13:12:58.084Z,10.72
2024-01-28T13:18:02.296Z,10.84
2024-01-28T13:23:07.680Z,11.26
2024-01-28T13:28:12.058Z,11.39
2024-01-28T13:33:16.226Z,11.37
2024-01-28T13:38:22.019Z,11.34
2024-01-28T13:43:26.067Z,11.59
2024-01-28T13:48:31.035Z,11.54
2024-01-28T13:53:37.962Z,10.43
2024-01-28T13:58:42.187Z,11.76
2024-01-28T14:03:46.132Z,11.43
2024-01-28T14:08:51.819Z,12.30
2024-01-28T14:13:55.908Z,10.81
2024-01-28T14:19:02.334Z,11.72
2024-01-28T14:24:08.554Z,12.38
2024-01-28T14:29:12.598Z,12.46
2024-01-28T14:34:16.765Z,12.66
2024-01-28T14:39:22.657Z,12.73
2024-01-28T14:44:27.257Z,12.45
2024-01-28T14:49:31.943Z,12.79
2024-01-28T14:54:37.644Z,12.84
2024-01-28T14:59:41.857Z,12.82
2024-01-28T15:04:45.750Z,12.38
2024-01-28T15:09:52.520Z,11.76
2024-01-28T15:14:56.493Z,12.55
2024-01-28T15:20:00.724Z,12.70
2024-01-28T15:25:07.539Z,12.81
2024-01-28T15:30:11.919Z,12.58
2024-01-28T15:35:16.201Z,12.72
2024-01-28T15:40:21.647Z,12.66
2024-01-28T15:45:25.438Z,12.39
2024-01-28T15:50:29.286Z,12.06
2024-01-28T15:55:34.802Z,12.27
2024-01-28T16:00:38.807Z,12.01
2024-01-28T16:05:42.825Z,11.50
2024-01-28T16:10:48.152Z,11.86
2024-01-28T16:15:52.362Z,11.68
2024-01-28T16:20:56.325Z,11.15
2024-01-28T16:26:01.867Z,11.13
2024-01-28T16:31:06.054Z,10.93
2024-01-28T16:36:10.138Z,9.55
2024-01-28T16:41:15.357Z,10.58
2024-01-28T16:46:21.691Z,10.65
2024-01-28T16:51:25.646Z,10.02
2024-01-28T16:56:32.637Z,9.50
2024-01-28T17:01:37.330Z,9.86
2024-01-28T17:06:41.268Z,10.20
2024-01-28T17:11:46.607Z,9.66
2024-01-28T17:16:50.670Z,9.22
2024-01-28T17:21:56.188Z,9.76
2024-01-28T17:27:01.958Z,9.44
2024-01-28T17:32:06.304Z,9.00
2024-01-28T17:37:15.489Z,9.53
2024-01-28T17:42:20.640Z,9.01
2024-01-28T17:47:24.578Z,9.24
2024-01-28T17:52:28.562Z,8.85
2024-01-28T17:57:35.805Z,8.54
2024-01-28T18:02:39.867Z,7.42
2024-01-28T18:07:44.776Z,8.71
2024-01-28T18:12:50.129Z,8.59
2024-01-28T18:17:54.010Z,8.41
2024-01-28T18:22:58.200Z,7.23
2024-01-28T18:28:03.641Z,8.10
2024-01-28T18:33:07.894Z,7.66
2024-01-28T18:38:11.835Z,7.95
2024-01-28T18:43:17.086Z,6.47
2024-01-28T18:48:21.674Z,6.48
2024-01-28T18:53:25.693Z,7.57
2024-01-28T18:58:30.942Z,7.44
2024-01-28T19:03:34.880Z,7.28
2024-01-28T19:08:38.884Z,6.66
2024-01-28T19:13:44.244Z,7.28
2024-01-28T19:18:48.788Z,5.82
2024-01-28T19:23:53.001Z,7.02
2024-01-28T19:28:58.286Z,6.94
2024-01-28T19:34:02.330Z,6.68
2024-01-28T19:39:06.454Z,6.47
2024-01-28T19:44:11.858Z,6.41
2024-01-28T19:49:16.166Z,6.11
2024-01-28T19:54:22.319Z,6.23
2024-01-28T19:59:27.781Z,6.20
2024-01-28T20:04:31.644Z,6.13
2024-01-28T20:09:35.593Z,6.23
2024-01-28T20:14:42.892Z,6.02
2024-01-28T20:19:47.002Z,6.12
2024-01-28T20:24:51.051Z,6.06
2024-01-28T20:29:56.167Z,6.05
2024-01-28T20:34:59.950Z,5.80
2024-01-28T20:40:04.214Z,5.83
2024-01-28T20:45:10.244Z,5.53
2024-01-28T20:50:14.227Z,5.79
2024-01-28T20:55:18.432Z,4.19
2024-01-28T21:00:29.051Z,5.54
2024-01-28T21:05:32.806Z,5.62
2024-01-28T21:10:38.663Z,4.96
2024-01-28T21:15:43.981Z,5.61
2024-01-28T21:20:48.106Z,4.83
2024-01-28T21:25:52.184Z,5.23
2024-01-28T21:30:57.990Z,5.51
2024-01-28T21:36:01.942Z,5.17
2024-01-28T21:41:05.936Z,5.37
2024-01-28T21:46:11.202Z,5.36
2024-01-28T21:51:15.403Z,3.56
2024-01-28T21:56:25.859Z,4.58
2024-01-28T22:01:31.271Z,5.15
2024-01-28T22:06:35.258Z,4.96
2024-01-28T22:11:40.775Z,4.59
2024-01-28T22:16:47.052Z,4.38
2024-01-28T22:21:50.795Z,4.88
2024-01-28T22:26:54.702Z,3.53
2024-01-28T22:31:59.735Z,4.85
2024-01-28T22:37:03.836Z,4.62
2024-01-28T22:42:08.221Z,4.39
2024-01-28T22:47:15.987Z,4.74
2024-01-28T22:52:19.745Z,4.72
2024-01-28T22:57:23.550Z,3.85
2024-01-28T23:02:29.760Z,4.59
2024-01-28T23:07:33.394Z,3.98
2024-01-28T23:12:37.311Z,4.58
2024-01-28T23:17:42.585Z,3.68
2024-01-28T23:22:46.458Z,3.92
2024-01-28T23:27:50.513Z,4.51
2024-01-28T23:32:55.824Z,4.51
2024-01-28T23:37:59.529Z,4.27
2024-01-28T23:43:03.673Z,4.40
2024-01-28T23:48:09.428Z,2.69
2024-01-28T23:53:13.793Z,4.29
2024-01-28T23:58:17.590Z,4.17
